Time;durP1;ratioP1;P1;durP2;ratioP2;P2;SDS_P1;SDS_P2;PMS_P1;PMS_P2;Temp;Humidity;BMP_temperature;BMP_pressure;BME280_temperature;BME280_humidity;BME280_pressure;Samples;Min_cycle;Max_cycle;Signal;HPM_P1;HPM_P2
2022/05/16 00:00:02;;;;;;;9.23;6.28;;;;;;;14.26;64.28;100235.91;5052286;28;20053;-53
2022/05/16 00:02:29;;;;;;;8.85;5.95;;;;;;;14.25;64.32;100228.66;5052931;28;20064;-53
2022/05/16 00:04:56;;;;;;;8.60;6.20;;;;;;;14.24;64.40;100232.63;5053301;28;20056;-55
2022/05/16 00:07:24;;;;;;;8.40;5.90;;;;;;;14.19;64.33;100217.69;5052500;28;20417;-55
2022/05/16 00:09:53;;;;;;;10.43;6.60;;;;;;;14.20;64.53;100226.91;5052374;28;20076;-50
2022/05/16 00:12:20;;;;;;;10.60;7.35;;;;;;;14.15;64.57;100221.50;5053218;28;20052;-54
2022/05/16 00:14:48;;;;;;;11.10;6.78;;;;;;;14.16;64.65;100218.38;5053609;28;20378;-57
2022/05/16 00:17:16;;;;;;;15.20;7.95;;;;;;;14.16;64.68;100215.56;5052609;28;20057;-52
2022/05/16 00:19:43;;;;;;;8.43;6.70;;;;;;;14.15;64.58;100215.91;5052637;28;20057;-55
2022/05/16 00:22:11;;;;;;;9.52;6.13;;;;;;;14.12;65.03;100211.00;5052350;28;20060;-57
2022/05/16 00:24:41;;;;;;;9.55;6.97;;;;;;;14.07;64.78;100198.03;5052579;28;20059;-56
2022/05/16 00:27:10;;;;;;;;;;;;;;;14.06;64.79;100201.19;5053722;28;20521;-54
2022/05/16 00:29:38;;;;;;;6.43;5.68;;;;;;;14.02;64.99;100201.84;5053062;28;19932;-55
2022/05/16 00:32:06;;;;;;;8.35;6.20;;;;;;;14.06;65.06;100207.59;5053583;28;20044;-55
2022/05/16 00:34:34;;;;;;;9.98;6.65;;;;;;;14.05;64.83;100197.56;5032924;28;20060;-56
2022/05/16 00:37:01;;;;;;;7.35;5.55;;;;;;;14.01;64.78;100196.63;5036528;28;20041;-56
2022/05/16 00:39:28;;;;;;;11.57;6.90;;;;;;;13.99;64.97;100198.94;5052653;28;20053;-55
2022/05/16 00:41:56;;;;;;;8.65;6.05;;;;;;;13.99;65.18;100201.75;5052864;28;20053;-51
2022/05/16 00:44:25;;;;;;;9.30;5.80;;;;;;;13.95;65.33;100196.00;5052547;28;20052;-55
2022/05/16 00:46:53;;;;;;;9.23;6.00;;;;;;;13.95;65.16;100190.41;5052632;28;20413;-53
2022/05/16 00:49:24;;;;;;;8.23;6.03;;;;;;;13.96;65.28;100192.06;5052613;28;20068;-55
2022/05/16 00:51:58;;;;;;;6.75;5.22;;;;;;;13.95;65.10;100193.22;5034886;28;20171;-56
2022/05/16 00:54:29;;;;;;;7.97;5.63;;;;;;;13.94;65.32;100188.78;5052338;28;20053;-56
2022/05/16 00:57:02;;;;;;;9.43;5.60;;;;;;;13.90;65.15;100187.00;5052599;28;20049;-53
2022/05/16 00:59:39;;;;;;;7.18;5.25;;;;;;;13.88;65.24;100187.34;5052248;28;20056;-53
2022/05/16 01:04:55;;;;;;;8.13;5.18;;;;;;;13.84;65.60;100182.75;5060781;28;20071;-57
2022/05/16 01:07:27;;;;;;;8.07;4.45;;;;;;;13.84;65.84;100188.38;5057604;28;20064;-52
2022/05/16 01:09:54;;;;;;;8.45;5.30;;;;;;;13.89;65.82;100179.78;5052090;28;20053;-51
2022/05/16 01:12:26;;;;;;;8.82;4.75;;;;;;;13.88;65.79;100178.13;5052063;28;20414;-54
2022/05/16 01:15:00;;;;;;;7.97;5.28;;;;;;;13.90;66.16;100171.03;5032536;28;20374;-55
2022/05/16 01:17:28;;;;;;;6.85;4.45;;;;;;;13.98;65.72;100183.28;5035861;28;20053;-52
2022/05/16 01:19:55;;;;;;;6.57;4.35;;;;;;;13.92;66.06;100174.31;5051931;28;20052;-53
2022/05/16 01:22:29;;;;;;;9.07;5.18;;;;;;;14.02;65.96;100170.25;5052551;28;20053;-56
2022/05/16 01:24:59;;;;;;;8.05;4.90;;;;;;;13.98;65.71;100178.53;5052106;28;20045;-56
2022/05/16 01:27:26;;;;;;;8.55;5.05;;;;;;;14.04;65.55;100170.72;5051419;28;20060;-57
2022/05/16 01:29:53;;;;;;;6.97;4.55;;;;;;;14.08;65.30;100157.66;5051697;28;20052;-56
2022/05/16 01:32:21;;;;;;;6.93;4.70;;;;;;;14.07;65.22;100164.44;5051712;28;20053;-51
2022/05/16 01:34:50;;;;;;;8.50;5.40;;;;;;;14.06;65.56;100159.97;5050366;28;20049;-55
2022/05/16 01:37:17;;;;;;;8.53;5.20;;;;;;;14.09;65.11;100164.91;5051851;28;20063;-57
2022/05/16 01:39:47;;;;;;;6.78;4.82;;;;;;;14.08;65.39;100162.44;5055995;28;20053;-54
2022/05/16 01:42:15;;;;;;;11.23;5.15;;;;;;;14.08;65.02;100149.25;5051349;28;20075;-57
2022/05/16 01:44:42;;;;;;;5.70;4.20;;;;;;;14.11;65.32;100154.19;5051877;28;20045;-52
2022/05/16 01:47:09;;;;;;;6.32;4.60;;;;;;;14.11;65.04;100159.78;5052205;28;20056;-51
2022/05/16 01:49:37;;;;;;;6.95;4.80;;;;;;;14.10;65.10;100152.53;5051628;28;20437;-55
2022/05/16 01:52:05;;;;;;;5.93;4.47;;;;;;;14.13;64.86;100151.00;5051544;28;20055;-55
2022/05/16 01:54:32;;;;;;;7.13;4.70;;;;;;;14.12;65.25;100149.38;5050881;28;20052;-55
2022/05/16 01:57:01;;;;;;;7.57;4.78;;;;;;;14.10;65.26;100146.94;5054286;28;20052;-52
2022/05/16 01:59:28;;;;;;;7.37;4.63;;;;;;;14.13;64.69;100145.41;5055873;28;20059;-52
2022/05/16 02:01:56;;;;;;;7.40;5.03;;;;;;;14.07;65.33;100146.78;5056106;28;20056;-54
2022/05/16 02:04:23;;;;;;;4.95;4.32;;;;;;;14.08;65.18;100140.03;5055575;28;20053;-53
2022/05/16 02:06:51;;;;;;;6.68;4.10;;;;;;;14.03;65.04;100129.88;5055168;28;20053;-57
2022/05/16 02:09:18;;;;;;;7.90;4.50;;;;;;;14.07;65.33;100125.22;5055238;28;20526;-57
2022/05/16 02:11:46;;;;;;;6.47;4.40;;;;;;;14.06;65.09;100126.38;5055489;28;20060;-55
2022/05/16 02:14:17;;;;;;;6.43;4.57;;;;;;;14.08;65.09;100126.03;5062569;28;20045;-56
2022/05/16 02:16:46;;;;;;;9.48;5.18;;;;;;;14.06;65.17;100123.56;5055206;28;20053;-57
2022/05/16 02:19:13;;;;;;;8.13;5.22;;;;;;;14.04;65.23;100123.09;5055474;28;20053;-57
2022/05/16 02:24:40;;;;;;;9.45;5.40;;;;;;;14.03;65.56;100121.47;5061043;28;20048;-55
2022/05/16 02:27:11;;;;;;;8.50;5.13;;;;;;;14.02;65.19;100117.84;5055661;28;20477;-56
2022/05/16 02:29:40;;;;;;;8.30;4.90;;;;;;;14.03;65.43;100113.09;5054897;28;20060;-55
2022/05/16 02:32:08;;;;;;;5.75;5.07;;;;;;;14.04;65.23;100111.09;5055440;28;20056;-57
2022/05/16 02:34:35;;;;;;;6.82;4.95;;;;;;;14.02;65.74;100112.25;5054925;28;20424;-55
2022/05/16 02:37:03;;;;;;;6.28;4.82;;;;;;;13.99;65.79;100107.34;5055535;28;20392;-55
2022/05/16 02:39:30;;;;;;;8.23;5.03;;;;;;;14.02;65.70;100105.81;5054446;28;20506;-57
2022/05/16 02:41:57;;;;;;;6.38;4.75;;;;;;;13.99;65.73;100098.13;5055659;28;20048;-53
2022/05/16 02:44:25;;;;;;;6.35;5.07;;;;;;;14.00;65.64;100103.38;5053778;28;20056;-56
2022/05/16 02:46:55;;;;;;;7.22;5.25;;;;;;;13.98;65.42;100088.94;5055600;28;20048;-55
2022/05/16 02:49:23;;;;;;;7.85;4.80;;;;;;;13.97;65.52;100092.88;5054557;28;20055;-53
2022/05/16 02:51:50;;;;;;;7.10;5.47;;;;;;;13.97;65.71;100089.25;5055113;28;20401;-55
2022/05/16 02:54:19;;;;;;;8.00;5.20;;;;;;;13.95;65.81;100083.19;5054781;28;20378;-55
2022/05/16 02:56:47;;;;;;;8.80;4.70;;;;;;;13.94;66.04;100078.75;5054843;28;20049;-51
2022/05/16 02:59:14;;;;;;;8.55;5.28;;;;;;;13.96;65.65;100076.41;5054299;28;20057;-55
2022/05/16 03:01:41;;;;;;;9.20;5.60;;;;;;;13.93;66.15;100075.13;5054019;28;20068;-55
2022/05/16 03:04:10;;;;;;;6.35;5.13;;;;;;;13.94;66.18;100075.94;5059767;28;20396;-55
2022/05/16 03:06:37;;;;;;;9.53;6.00;;;;;;;13.89;66.23;100073.38;5062062;28;20052;-54
2022/05/16 03:09:05;;;;;;;8.00;5.32;;;;;;;13.89;66.25;100068.59;5052542;28;20052;-55
2022/05/16 03:11:32;;;;;;;6.25;5.38;;;;;;;13.91;66.06;100065.44;5054456;28;20069;-53
2022/05/16 03:14:00;;;;;;;7.95;5.20;;;;;;;13.91;65.98;100065.44;5053780;28;20049;-53
2022/05/16 03:16:27;;;;;;;9.40;5.65;;;;;;;13.90;65.89;100067.44;5034378;28;20049;-54
2022/05/16 03:18:54;;;;;;;8.82;5.45;;;;;;;13.89;66.25;100060.19;5038407;28;20068;-52
2022/05/16 03:21:23;;;;;;;10.25;6.38;;;;;;;13.87;66.07;100065.31;5054937;28;20072;-53
2022/05/16 03:23:50;;;;;;;7.57;5.65;;;;;;;13.86;66.02;100057.25;5054010;28;20507;-56
2022/05/16 03:26:18;;;;;;;9.02;5.88;;;;;;;13.85;66.37;100050.03;5054074;28;20404;-52
2022/05/16 03:28:45;;;;;;;8.40;5.82;;;;;;;13.83;66.34;100050.38;5053891;28;20115;-54
2022/05/16 03:31:12;;;;;;;9.77;6.22;;;;;;;13.84;66.15;100053.97;5053560;28;20382;-54
2022/05/16 03:33:40;;;;;;;7.22;5.70;;;;;;;13.81;66.21;100050.72;5053252;28;20053;-53
2022/05/16 03:36:08;;;;;;;9.52;6.57;;;;;;;13.80;66.33;100060.28;5054074;28;20056;-53
2022/05/16 03:41:22;;;;;;;10.65;5.90;;;;;;;13.83;66.27;100055.97;5056431;28;20083;-55
2022/05/16 03:43:50;;;;;;;6.13;5.20;;;;;;;13.86;66.61;100046.06;5053694;28;20052;-55
2022/05/16 03:46:19;;;;;;;8.52;5.90;;;;;;;13.93;66.05;100046.31;5053641;28;20049;-50
2022/05/16 03:48:46;;;;;;;8.02;5.53;;;;;;;13.93;66.28;100058.34;5053285;28;20053;-51
2022/05/16 03:51:15;;;;;;;8.20;5.28;;;;;;;13.99;65.88;100051.34;5053591;28;20472;-55
2022/05/16 03:53:46;;;;;;;7.82;5.45;;;;;;;14.03;66.12;100051.47;5053146;28;20064;-55
2022/05/16 03:56:14;;;;;;;10.30;5.57;;;;;;;14.07;66.09;100048.78;5054032;28;20064;-53
2022/05/16 03:58:42;;;;;;;8.77;5.72;;;;;;;14.14;65.69;100061.03;5053153;28;20052;-56
2022/05/16 04:01:12;;;;;;;7.55;5.32;;;;;;;14.19;65.50;100051.59;5053001;28;20512;-55
2022/05/16 04:03:40;;;;;;;7.97;5.55;;;;;;;14.29;65.41;100053.13;5052752;28;20523;-55
2022/05/16 04:06:07;;;;;;;9.48;5.72;;;;;;;14.34;65.51;100050.06;5053254;28;20067;-54
2022/05/16 04:08:35;;;;;;;7.93;5.28;;;;;;;14.37;65.17;100046.59;5053427;28;20059;-53
2022/05/16 04:11:07;;;;;;;7.32;4.90;;;;;;;14.41;64.76;100055.94;5053616;28;20417;-54
2022/05/16 04:13:35;;;;;;;8.52;5.55;;;;;;;14.41;64.54;100048.31;5069024;28;20497;-56
2022/05/16 04:16:02;;;;;;;9.00;5.68;;;;;;;14.45;64.54;100045.66;5053385;28;20053;-52
2022/05/16 04:18:31;;;;;;;7.15;4.88;;;;;;;14.48;64.76;100041.31;5052841;28;20049;-55
2022/05/16 04:20:58;;;;;;;6.53;4.67;;;;;;;14.51;64.60;100049.84;5053296;28;20057;-53
2022/05/16 04:23:28;;;;;;;5.97;5.28;;;;;;;14.58;64.40;100055.69;5053017;28;20498;-54
2022/05/16 04:25:55;;;;;;;;;;;;;;;14.58;64.64;100050.09;5053674;28;20052;-53
2022/05/16 04:28:24;;;;;;;7.88;5.03;;;;;;;14.59;64.24;100057.34;5052882;28;19920;-54
2022/05/16 04:30:51;;;;;;;7.53;5.13;;;;;;;14.64;64.22;100055.47;5052843;28;20056;-53
2022/05/16 04:33:19;;;;;;;6.82;4.53;;;;;;;14.67;64.74;100051.97;5052941;28;20053;-55
2022/05/16 04:35:46;;;;;;;12.80;5.35;;;;;;;14.71;65.11;100050.09;5052636;28;20993;-55
2022/05/16 04:38:14;;;;;;;7.13;5.10;;;;;;;14.79;64.75;100043.53;5053201;28;20056;-53
2022/05/16 04:43:24;;;;;;;8.52;5.60;;;;;;;14.91;64.20;100029.50;5051905;28;20509;-55
2022/05/16 04:45:52;;;;;;;7.85;5.18;;;;;;;14.92;64.24;100045.13;5054989;28;20056;-56
2022/05/16 04:48:19;;;;;;;6.68;5.00;;;;;;;14.99;64.42;100044.53;5060561;28;20049;-56
2022/05/16 04:50:47;;;;;;;7.30;5.10;;;;;;;15.05;64.05;100045.09;5052260;28;20045;-56
2022/05/16 04:53:14;;;;;;;6.30;5.43;;;;;;;15.07;64.00;100037.16;5052151;28;20049;-54
2022/05/16 04:55:42;;;;;;;7.30;5.50;;;;;;;15.12;64.10;100034.91;5052209;28;20520;-56
2022/05/16 04:58:12;;;;;;;9.50;5.20;;;;;;;15.15;63.61;100034.19;5052414;28;20063;-55
2022/05/16 05:00:41;;;;;;;8.52;5.15;;;;;;;15.27;63.45;100036.16;5051727;28;20060;-57
2022/05/16 05:03:09;;;;;;;9.65;5.40;;;;;;;15.36;63.10;100036.00;5057675;28;20052;-53
2022/05/16 05:05:36;;;;;;;9.23;5.63;;;;;;;15.44;63.10;100035.00;5053665;28;20416;-55
2022/05/16 05:08:04;;;;;;;7.32;5.60;;;;;;;15.60;62.52;100043.47;5051981;28;20064;-53
2022/05/16 05:16:09;;;;;;;6.25;5.35;;;;;;;16.04;61.38;100035.03;5053171;28;20060;-54
2022/05/16 05:18:38;;;;;;;7.82;5.32;;;;;;;16.20;60.88;100047.09;5051628;28;20413;-55
2022/05/16 05:21:06;;;;;;;8.23;5.32;;;;;;;16.33;60.48;100044.19;5065135;28;20052;-57
2022/05/16 05:23:34;;;;;;;7.38;5.20;;;;;;;16.46;60.10;100044.88;5044770;28;20486;-56
2022/05/16 05:26:01;;;;;;;8.82;5.65;;;;;;;16.58;59.12;100041.97;5052123;28;20045;-53
2022/05/16 05:28:29;;;;;;;9.20;5.22;;;;;;;16.68;58.83;100047.03;5051976;28;20053;-56
2022/05/16 05:30:57;;;;;;;7.03;4.65;;;;;;;16.91;58.40;100047.19;5051287;28;20061;-56
2022/05/16 05:33:28;;;;;;;9.80;5.60;;;;;;;17.13;57.75;100064.53;5051618;28;20144;-55
2022/05/16 05:35:56;;;;;;;6.55;4.90;;;;;;;17.31;57.46;100062.91;5046058;28;20049;-56
2022/05/16 05:38:24;;;;;;;7.97;4.55;;;;;;;17.53;56.90;100052.88;5067023;28;20049;-55
2022/05/16 05:40:51;;;;;;;6.22;4.50;;;;;;;17.69;56.73;100050.00;5051459;28;20056;-53
2022/05/16 05:46:04;;;;;;;10.43;4.78;;;;;;;18.11;55.57;100048.38;5030426;28;20504;-52
2022/05/16 05:48:33;;;;;;;7.70;4.10;;;;;;;18.39;55.17;100060.09;5051320;28;20053;-57
2022/05/16 05:51:01;;;;;;;6.77;4.50;;;;;;;18.61;54.62;100049.19;5051779;28;20097;-57
2022/05/16 05:53:28;;;;;;;7.50;5.25;;;;;;;18.78;54.25;100045.84;5062806;28;20060;-55
2022/05/16 05:55:56;;;;;;;7.20;4.90;;;;;;;19.02;53.89;100046.56;5055199;28;20057;-55
2022/05/16 05:58:24;;;;;;;7.50;4.97;;;;;;;19.25;53.09;100044.44;5051467;28;20067;-56
2022/05/16 06:00:51;;;;;;;8.90;4.75;;;;;;;19.46;52.44;100041.09;5051559;28;20132;-54
2022/05/16 06:03:18;;;;;;;8.65;4.80;;;;;;;19.59;52.14;100043.63;5051658;28;20053;-52
2022/05/16 06:05:49;;;;;;;7.13;4.50;;;;;;;19.79;52.45;100047.13;5050517;28;20056;-57
2022/05/16 06:08:16;;;;;;;7.28;4.38;;;;;;;19.89;53.08;100045.63;5051580;28;20049;-53
2022/05/16 06:10:44;;;;;;;6.70;4.50;;;;;;;20.00;53.40;100044.50;5052430;28;20064;-54
2022/05/16 06:13:11;;;;;;;8.40;4.97;;;;;;;20.10;53.09;100048.66;5057464;28;20076;-54
2022/05/16 06:15:38;;;;;;;8.68;4.55;;;;;;;20.14;52.69;100049.50;5050994;28;20053;-54
2022/05/16 06:18:06;;;;;;;7.90;4.40;;;;;;;20.21;52.46;100037.44;5050945;28;20493;-57
2022/05/16 06:20:33;;;;;;;7.88;4.60;;;;;;;20.24;52.23;100036.63;5050488;28;20073;-56
2022/05/16 06:23:02;;;;;;;9.30;4.57;;;;;;;20.25;51.84;100044.75;5050754;28;20397;-57
2022/05/16 06:25:31;;;;;;;6.80;4.20;;;;;;;20.38;52.03;100047.28;5050115;28;20052;-55
2022/05/16 06:27:59;;;;;;;10.13;5.97;;;;;;;20.46;52.29;100048.94;5050422;28;20040;-56
2022/05/16 06:30:27;;;;;;;6.93;4.40;;;;;;;20.53;52.33;100039.69;5047597;28;20049;-56
2022/05/16 06:32:54;;;;;;;9.00;4.00;;;;;;;20.45;51.00;100048.16;5050634;28;20660;-55
2022/05/16 06:35:21;;;;;;;7.82;4.50;;;;;;;20.49;52.25;100042.50;5050469;28;20060;-55
2022/05/16 06:37:49;;;;;;;6.60;4.50;;;;;;;20.55;52.88;100048.59;5050869;28;20068;-54
2022/05/16 06:40:19;;;;;;;8.40;4.00;;;;;;;20.72;52.67;100056.44;5050759;28;20049;-56
2022/05/16 06:42:47;;;;;;;8.10;4.20;;;;;;;20.87;52.56;100051.69;5052376;28;20492;-55
2022/05/16 06:45:15;;;;;;;8.27;3.90;;;;;;;20.97;52.88;100048.09;5054914;28;20052;-52
2022/05/16 06:47:43;;;;;;;9.00;4.10;;;;;;;21.14;53.51;100060.72;5054269;28;20048;-56
2022/05/16 06:50:12;;;;;;;7.78;4.60;;;;;;;21.23;53.64;100057.53;5053807;28;20049;-56
2022/05/16 06:52:39;;;;;;;8.65;4.60;;;;;;;21.31;53.22;100069.72;5054179;28;20409;-57
2022/05/16 06:55:08;;;;;;;13.48;6.60;;;;;;;21.21;54.47;100074.94;5054597;28;20045;-54
2022/05/16 06:57:37;;;;;;;11.10;6.43;;;;;;;21.33;54.56;100072.97;5054045;28;20056;-57
2022/05/16 07:00:06;;;;;;;10.18;6.47;;;;;;;21.35;55.26;100076.22;5054046;28;20086;-53
2022/05/16 07:02:33;;;;;;;10.73;7.60;;;;;;;21.40;55.39;100073.81;5063196;28;20064;-57
2022/05/16 07:05:03;;;;;;;10.13;6.45;;;;;;;21.46;55.40;100077.94;5055448;28;20049;-56
2022/05/16 07:07:31;;;;;;;8.55;6.43;;;;;;;21.47;55.27;100076.69;5052989;28;20053;-58
2022/05/16 07:09:58;;;;;;;9.02;6.25;;;;;;;21.61;54.75;100089.31;5053517;28;20481;-59
2022/05/16 07:12:26;;;;;;;7.53;5.30;;;;;;;21.74;53.86;100089.78;5054323;28;20064;-59
2022/05/16 07:14:55;;;;;;;11.38;4.90;;;;;;;21.85;52.15;100087.75;5053365;28;20401;-59
2022/05/16 07:17:22;;;;;;;8.88;4.53;;;;;;;21.99;52.29;100082.13;5054016;28;20053;-59
2022/05/16 07:19:49;;;;;;;8.15;4.93;;;;;;;22.16;51.17;100089.03;5063827;28;20152;-59
2022/05/16 07:22:22;;;;;;;8.77;4.35;;;;;;;22.55;52.16;100081.78;5054319;28;20060;-58
2022/05/16 07:24:51;;;;;;;10.80;4.72;;;;;;;22.86;51.13;100082.97;5052723;28;20065;-59
2022/05/16 07:30:07;;;;;;;8.40;5.20;;;;;;;23.46;48.38;100087.72;5058704;28;20055;-58
2022/05/16 07:32:36;;;;;;;17.98;6.90;;;;;;;23.66;48.05;100096.56;5053005;28;20056;-59
2022/05/16 07:35:05;;;;;;;23.95;8.07;;;;;;;23.87;46.64;100095.66;5052969;28;20045;-59
2022/05/16 07:37:32;;;;;;;21.90;10.27;;;;;;;23.99;46.29;100087.91;5053738;28;20053;-59
2022/05/16 07:40:00;;;;;;;22.58;12.30;;;;;;;24.13;46.18;100089.81;5052261;28;20055;-59
2022/05/16 07:42:27;;;;;;;8.27;4.60;;;;;;;24.13;44.53;100090.66;5053525;28;20477;-59
2022/05/16 07:44:55;;;;;;;10.30;4.82;;;;;;;24.00;45.84;100095.19;5051301;28;20048;-59
2022/05/16 07:47:26;;;;;;;19.60;8.88;;;;;;;24.06;45.29;100100.03;5052930;28;20056;-59
2022/05/16 07:49:53;;;;;;;9.40;4.40;;;;;;;24.00;46.18;100098.88;5052215;28;20052;-57
2022/05/16 07:52:21;;;;;;;8.60;4.68;;;;;;;23.87;44.58;100097.72;5053002;28;20060;-58
2022/05/16 07:54:48;;;;;;;6.00;2.70;;;;;;;23.67;41.54;100098.19;5058071;28;20049;-57
2022/05/16 07:57:16;;;;;;;7.05;2.80;;;;;;;23.43;41.05;100105.59;5051041;28;20045;-59
2022/05/16 07:59:43;;;;;;;5.32;2.40;;;;;;;23.25;41.01;100110.53;5053182;28;20055;-59
2022/05/16 08:02:12;;;;;;;4.85;2.40;;;;;;;23.08;41.11;100112.22;5053230;28;20057;-59
2022/05/16 08:04:41;;;;;;;4.27;2.40;;;;;;;23.00;40.57;100121.94;5051652;28;20480;-59
2022/05/16 08:07:09;;;;;;;3.67;2.55;;;;;;;22.85;40.76;100132.50;5053373;28;20080;-59
2022/05/16 08:12:26;;;;;;;4.45;2.40;;;;;;;22.75;41.97;100144.66;5053325;28;20057;-59
2022/05/16 08:14:54;;;;;;;5.90;2.70;;;;;;;22.68;41.43;100156.84;5050671;28;20049;-59
2022/05/16 08:17:22;;;;;;;4.50;2.50;;;;;;;22.57;42.15;100167.34;5052847;28;20450;-59
2022/05/16 08:19:51;;;;;;;4.47;2.58;;;;;;;22.56;42.37;100172.22;5051942;28;20485;-59
2022/05/16 08:22:19;;;;;;;4.45;2.72;;;;;;;22.50;42.46;100188.03;5053438;28;20053;-59
2022/05/16 08:24:47;;;;;;;6.53;2.70;;;;;;;22.44;42.88;100178.28;5051371;28;20056;-57
2022/05/16 08:27:14;;;;;;;4.25;2.70;;;;;;;22.47;43.25;100180.34;5052766;28;20151;-56
2022/05/16 08:29:42;;;;;;;6.43;2.70;;;;;;;22.47;43.30;100180.34;5052396;28;20064;-56
2022/05/16 08:32:14;;;;;;;5.07;2.28;;;;;;;22.48;43.33;100164.91;5052744;28;20057;-55
2022/05/16 08:34:41;;;;;;;5.55;2.60;;;;;;;22.44;43.95;100172.63;5051641;28;20074;-58
2022/05/16 08:39:55;;;;;;;4.68;2.65;;;;;;;22.63;44.07;100177.09;5053343;28;20056;-57
2022/05/16 08:42:48;;;;;;;5.37;2.70;;;;;;;22.73;44.05;100175.50;5052142;28;20355;-57
2022/05/16 08:45:18;;;;;;;4.75;2.30;;;;;;;22.62;44.25;100164.94;5052580;28;20044;-56
2022/05/16 08:47:54;;;;;;;8.00;2.60;;;;;;;22.59;44.80;100182.75;5052305;28;20060;-56
2022/05/16 08:50:26;;;;;;;4.20;2.17;;;;;;;22.59;44.93;100182.75;5051301;28;20052;-57
2022/05/16 08:53:02;;;;;;;6.85;2.80;;;;;;;22.73;44.88;100181.97;5051532;28;20396;-56
2022/05/16 08:55:33;;;;;;;3.85;2.80;;;;;;;22.80;44.91;100187.66;5051112;28;20500;-58
2022/05/16 08:58:08;;;;;;;5.50;2.50;;;;;;;22.77;45.06;100182.78;5039534;28;20049;-57
2022/05/16 09:00:41;;;;;;;3.70;2.55;;;;;;;22.78;45.31;100170.19;5053176;28;20508;-58
2022/05/16 09:03:18;;;;;;;7.10;2.70;;;;;;;22.95;45.00;100174.28;5060664;28;20053;-55
2022/05/16 09:05:51;;;;;;;6.97;2.70;;;;;;;23.01;45.40;100175.50;5037512;28;20045;-59
2022/05/16 09:08:32;;;;;;;4.68;2.50;;;;;;;23.14;45.01;100172.25;5052074;28;20045;-54
2022/05/16 09:11:08;;;;;;;5.93;2.80;;;;;;;23.29;45.14;100171.81;5065423;28;20048;-55
2022/05/16 09:13:49;;;;;;;5.72;2.53;;;;;;;23.48;44.59;100176.25;5055503;28;20064;-56
2022/05/16 09:16:34;;;;;;;3.75;2.30;;;;;;;23.67;44.02;100171.31;5050829;28;20057;-59
2022/05/16 09:19:20;;;;;;;5.25;2.60;;;;;;;23.89;44.09;100175.72;5053773;28;20041;-57
2022/05/16 09:21:57;;;;;;;5.75;2.50;;;;;;;24.05;44.04;100165.91;5049984;28;20049;-59
2022/05/16 09:24:35;;;;;;;5.03;2.70;;;;;;;23.98;44.76;100174.47;5051025;28;20045;-56
2022/05/16 09:27:09;;;;;;;4.18;2.60;;;;;;;23.84;43.92;100179.00;5035129;28;20057;-54
2022/05/16 09:29:39;;;;;;;5.55;2.60;;;;;;;23.75;44.89;100172.94;5052048;28;20434;-55
2022/05/16 09:32:12;;;;;;;4.70;2.60;;;;;;;23.74;44.86;100164.78;5050632;28;20727;-59
2022/05/16 09:34:40;;;;;;;5.82;2.55;;;;;;;23.69;45.33;100163.19;5052759;28;20053;-58
2022/05/16 09:37:08;;;;;;;5.55;2.40;;;;;;;23.70;45.66;100167.66;5059602;28;20060;-59
2022/05/16 09:39:38;;;;;;;4.28;2.38;;;;;;;23.80;45.00;100177.41;5051589;28;20382;-58
2022/05/16 09:42:13;;;;;;;7.03;2.80;;;;;;;23.50;45.86;100175.84;5050957;28;20052;-59
2022/05/16 09:44:45;;;;;;;5.20;2.65;;;;;;;23.67;46.49;100177.81;5050727;28;20049;-56
2022/05/16 09:47:21;;;;;;;5.63;2.70;;;;;;;23.62;46.19;100185.94;5050530;28;20049;-59
2022/05/16 09:50:09;;;;;;;4.22;2.60;;;;;;;23.57;47.15;100186.38;5051439;28;20056;-59
2022/05/16 09:52:40;;;;;;;6.38;2.97;;;;;;;23.58;48.24;100188.00;5060483;28;20056;-65
2022/05/16 09:55:15;;;;;;;5.88;3.10;;;;;;;23.53;48.16;100192.06;5060922;28;20056;-58
2022/05/16 09:57:51;;;;;;;6.50;3.00;;;;;;;23.44;48.78;100201.03;5050292;28;20076;-58
2022/05/16 10:00:23;;;;;;;5.40;2.97;;;;;;;23.37;50.32;100201.06;5049965;28;20061;-55
2022/05/16 10:03:01;;;;;;;4.85;2.65;;;;;;;23.29;50.57;100196.59;5050256;28;20045;-57
2022/05/16 10:05:31;;;;;;;6.32;3.00;;;;;;;23.32;50.69;100201.47;5050778;28;20453;-56
2022/05/16 10:08:05;;;;;;;5.53;3.63;;;;;;;23.22;51.58;100200.25;5050551;28;20057;-57
2022/05/16 10:10:45;;;;;;;6.72;3.55;;;;;;;23.20;51.23;100207.56;5052511;28;20056;-57
2022/05/16 10:13:13;;;;;;;6.53;3.55;;;;;;;23.23;53.25;100201.06;5051573;28;20072;-59
2022/05/16 10:15:40;;;;;;;7.30;4.10;;;;;;;23.23;54.26;100203.91;5050253;28;20052;-57
2022/05/16 10:18:13;;;;;;;7.03;3.75;;;;;;;23.30;53.81;100210.38;5053558;28;20518;-55
2022/05/16 10:20:45;;;;;;;7.57;4.40;;;;;;;23.41;53.69;100206.72;5054777;28;20071;-59
2022/05/16 10:23:20;;;;;;;6.90;3.75;;;;;;;23.53;52.85;100211.16;5054162;28;20098;-52
2022/05/16 10:25:52;;;;;;;7.90;4.50;;;;;;;23.62;53.58;100220.06;5051741;28;20052;-57
2022/05/16 10:28:26;;;;;;;5.18;3.55;;;;;;;23.75;53.42;100218.44;5054000;28;20041;-56
2022/05/16 10:33:41;;;;;;;6.68;4.03;;;;;;;24.08;53.22;100216.28;5055968;28;20500;-58
2022/05/16 10:36:21;;;;;;;7.78;3.65;;;;;;;24.21;53.59;100217.47;5054452;28;20053;-57
2022/05/16 10:38:54;;;;;;;6.50;3.80;;;;;;;24.45;53.16;100223.44;5055230;28;20424;-58
2022/05/16 10:41:40;;;;;;;6.00;4.15;;;;;;;24.67;52.60;100212.72;5054820;28;20053;-56
2022/05/16 10:44:18;;;;;;;7.47;3.80;;;;;;;24.90;50.60;100200.75;5068331;28;20488;-56
2022/05/16 10:46:54;;;;;;;4.77;3.53;;;;;;;25.22;48.78;100188.28;5058982;28;20417;-57
2022/05/16 10:49:21;;;;;;;4.53;3.08;;;;;;;25.64;47.23;100181.34;5054983;28;20459;-57
2022/05/16 10:51:54;;;;;;;6.03;3.35;;;;;;;26.53;46.61;100190.75;5054386;28;20431;-56
2022/05/16 10:54:27;;;;;;;6.22;3.63;;;;;;;28.16;43.31;100194.41;5054927;28;20052;-54
2022/05/16 10:57:15;;;;;;;5.65;3.90;;;;;;;30.78;38.74;100199.66;5054146;28;20493;-58
2022/05/16 11:00:00;;;;;;;3.92;2.97;;;;;;;33.51;34.74;100201.66;5055659;28;20052;-55
2022/05/16 11:02:42;;;;;;;7.30;3.55;;;;;;;35.25;29.64;100198.00;5074626;28;20053;-57
2022/05/16 11:05:38;;;;;;;4.28;2.83;;;;;;;37.61;26.99;100189.69;5054313;28;20492;-58
2022/05/16 11:08:14;;;;;;;5.38;2.88;;;;;;;39.67;23.98;100192.34;5053837;28;20405;-59
2022/05/16 11:10:48;;;;;;;4.75;2.78;;;;;;;40.42;23.10;100189.88;5054352;28;20098;-58
2022/05/16 11:13:26;;;;;;;4.72;2.75;;;;;;;41.87;21.52;100186.28;5054200;28;20052;-58
2022/05/16 11:15:57;;;;;;;7.10;2.70;;;;;;;42.53;20.95;100180.53;5054215;28;20489;-58
2022/05/16 11:18:34;;;;;;;4.95;2.63;;;;;;;42.12;20.81;100181.34;5070709;28;20059;-60
2022/05/16 11:21:14;;;;;;;5.85;3.03;;;;;;;42.72;20.36;100187.25;5072855;28;20053;-59
2022/05/16 11:23:51;;;;;;;5.88;2.35;;;;;;;43.24;19.12;100181.63;5054147;28;20060;-59
2022/05/16 11:26:23;;;;;;;3.83;2.67;;;;;;;43.28;19.12;100173.34;5036030;28;20429;-60
2022/05/16 11:29:19;;;;;;;5.05;2.78;;;;;;;42.99;18.90;100187.53;5053291;28;20480;-60
2022/05/16 11:32:06;;;;;;;3.03;2.33;;;;;;;41.90;19.09;100183.09;5053984;28;20489;-60
2022/05/16 11:34:53;;;;;;;4.28;2.50;;;;;;;41.32;20.89;100180.16;5062693;28;20048;-60
2022/05/16 11:37:32;;;;;;;5.13;2.80;;;;;;;40.77;21.06;100192.25;5066353;28;20053;-60
2022/05/16 11:40:06;;;;;;;5.07;2.53;;;;;;;40.32;22.13;100177.69;5053934;28;20504;-60
2022/05/16 11:42:42;;;;;;;5.47;3.28;;;;;;;41.63;20.70;100172.34;5053557;28;20059;-59
2022/05/16 11:45:28;;;;;;;4.93;2.80;;;;;;;42.85;19.10;100171.16;5053628;28;20060;-60
2022/05/16 11:48:04;;;;;;;3.40;2.58;;;;;;;43.63;18.45;100165.69;5053487;28;20090;-59
2022/05/16 11:50:40;;;;;;;5.60;3.00;;;;;;;44.38;16.76;100156.78;5053647;28;20452;-60
2022/05/16 11:53:33;;;;;;;5.68;2.83;;;;;;;44.41;17.71;100163.69;5045977;28;20385;-60
2022/05/16 12:01:34;;;;;;;5.38;2.75;;;;;;;41.17;19.89;100151.28;5055008;28;20440;-60
2022/05/16 12:04:12;;;;;;;3.38;2.25;;;;;;;40.73;20.31;100159.59;5053291;28;20504;-60
2022/05/16 12:06:41;;;;;;;3.97;2.67;;;;;;;40.53;22.03;100162.78;5053370;28;20061;-60
2022/05/16 12:09:21;;;;;;;4.70;2.63;;;;;;;41.00;19.81;100151.31;5050979;28;20057;-60
2022/05/16 12:11:55;;;;;;;3.17;2.55;;;;;;;41.78;18.94;100147.25;5040803;28;20486;-60
2022/05/16 12:14:28;;;;;;;3.25;2.20;;;;;;;41.07;19.23;100147.03;5052000;28;20057;-60